Time;durP1;ratioP1;P1;durP2;ratioP2;P2;SDS_P1;SDS_P2;PMS_P1;PMS_P2;Temp;Humidity;BMP_temperature;BMP_pressure;BME280_temperature;BME280_humidity;BME280_pressure;Samples;Min_cycle;Max_cycle;Signal;HPM_P1;HPM_P2
2021/05/19 05:30:34;;;;;;;10.43;6.95;;;;;;;10.39;84.70;99651.16;1673572;79;25722;-59
2021/05/19 05:33:00;;;;;;;10.85;7.72;;;;;;;10.41;84.90;99655.69;1683990;83;27317;-58
2021/05/19 05:35:27;;;;;;;11.60;6.53;;;;;;;10.42;84.96;99664.05;1641465;84;26040;-59
2021/05/19 05:37:53;;;;;;;10.68;7.22;;;;;;;10.43;85.06;99667.53;1640871;83;25899;-59
2021/05/19 05:40:19;;;;;;;12.13;7.83;;;;;;;10.45;84.97;99669.34;1656937;84;26751;-59
2021/05/19 05:42:46;;;;;;;11.60;7.85;;;;;;;10.48;84.96;99671.98;1615322;86;29461;-59
2021/05/19 05:45:14;;;;;;;8.90;7.47;;;;;;;10.48;85.05;99674.12;1656930;84;25896;-59
2021/05/19 05:47:40;;;;;;;15.28;8.23;;;;;;;10.47;84.94;99679.28;1631085;86;25920;-58
2021/05/19 05:50:09;;;;;;;9.78;6.72;;;;;;;10.46;85.00;99677.70;1683622;83;25683;-57
2021/05/19 05:52:35;;;;;;;8.55;7.00;;;;;;;10.45;84.97;99685.03;1654644;83;25663;-58
2021/05/19 05:55:03;;;;;;;11.68;7.50;;;;;;;10.47;85.14;99691.45;1685191;82;27490;-58
2021/05/19 05:57:30;;;;;;;13.90;8.00;;;;;;;10.48;85.33;99691.69;1679576;83;25866;-59
2021/05/19 05:59:57;;;;;;;10.70;8.05;;;;;;;10.53;85.48;99701.55;1672624;83;25653;-58
2021/05/19 06:02:25;;;;;;;12.35;7.95;;;;;;;10.57;85.65;99700.59;1683493;83;25926;-57
2021/05/19 06:04:51;;;;;;;14.55;8.08;;;;;;;10.60;85.67;99701.84;1659119;83;25898;-58
2021/05/19 06:07:18;;;;;;;13.40;7.85;;;;;;;10.61;85.50;99702.88;1689459;83;28039;-56
2021/05/19 06:09:50;;;;;;;11.18;7.70;;;;;;;10.62;85.38;99699.06;1682426;83;25950;-57
2021/05/19 06:12:12;;;;;;;9.10;7.65;;;;;;;10.64;85.50;99700.06;1680416;83;25894;-60
2021/05/19 06:14:38;;;;;;;13.70;8.00;;;;;;;10.62;85.19;99699.06;1673714;83;26215;-60
2021/05/19 06:17:05;;;;;;;9.88;7.28;;;;;;;10.61;85.29;99700.73;1677080;83;25758;-60
2021/05/19 06:19:31;;;;;;;12.45;7.62;;;;;;;10.60;85.21;99710.73;1683235;83;27547;-61
2021/05/19 06:21:58;;;;;;;11.93;8.75;;;;;;;10.59;85.34;99705.65;1678832;82;25559;-60
2021/05/19 06:24:25;;;;;;;10.70;7.78;;;;;;;10.60;85.30;99714.01;1679305;83;25806;-60
2021/05/19 06:26:51;;;;;;;11.33;7.70;;;;;;;10.59;85.41;99711.05;1679816;83;27820;-61
2021/05/19 06:29:17;;;;;;;12.98;8.15;;;;;;;10.58;85.29;99701.38;1684490;83;25905;-60
2021/05/19 06:31:44;;;;;;;16.20;8.85;;;;;;;10.57;85.36;99698.42;1677603;83;27363;-60
2021/05/19 06:34:10;;;;;;;16.57;8.45;;;;;;;10.59;85.49;99705.11;1690331;82;26391;-60
2021/05/19 06:36:39;;;;;;;12.13;8.63;;;;;;;10.61;85.62;99705.58;1689152;83;25703;-60
2021/05/19 06:39:05;;;;;;;16.65;9.20;;;;;;;10.62;85.68;99709.06;1683989;82;26621;-60
2021/05/19 06:41:32;;;;;;;10.75;8.30;;;;;;;10.63;85.82;99703.33;1683099;83;25920;-60
2021/05/19 06:43:58;;;;;;;12.58;9.38;;;;;;;10.64;85.84;99710.34;1675731;83;27331;-60
2021/05/19 06:46:25;;;;;;;15.90;9.20;;;;;;;10.66;85.62;99714.08;1686137;83;25714;-60
2021/05/19 06:48:52;;;;;;;17.27;10.10;;;;;;;10.66;85.83;99710.02;1682752;82;25872;-60
2021/05/19 06:51:21;;;;;;;14.43;10.68;;;;;;;10.66;85.80;99710.02;1678398;83;25805;-60
2021/05/19 06:53:48;;;;;;;17.85;10.28;;;;;;;10.67;85.77;99712.95;1678170;83;25691;-60
2021/05/19 06:56:14;;;;;;;17.67;10.80;;;;;;;10.68;85.77;99709.13;1679055;83;27401;-60
2021/05/19 06:58:41;;;;;;;16.25;10.98;;;;;;;10.71;85.88;99712.55;1677059;83;27285;-60
2021/05/19 07:01:07;;;;;;;16.05;11.33;;;;;;;10.74;85.94;99718.64;1669342;83;25679;-60
2021/05/19 07:03:33;;;;;;;16.67;11.28;;;;;;;10.77;86.14;99711.80;1684064;83;25918;-62
2021/05/19 07:06:00;;;;;;;19.52;11.48;;;;;;;10.80;86.26;99717.36;1687705;82;26541;-59
2021/05/19 07:08:27;;;;;;;18.05;11.68;;;;;;;10.84;86.31;99713.44;1674673;83;27930;-59
2021/05/19 07:10:53;;;;;;;22.17;12.43;;;;;;;10.86;86.21;99715.83;1655728;83;25819;-60
2021/05/19 07:13:19;;;;;;;16.80;11.30;;;;;;;10.89;86.45;99713.26;1673085;83;25749;-60
2021/05/19 07:15:50;;;;;;;19.35;11.73;;;;;;;10.94;86.45;99721.77;1682098;83;25808;-60
2021/05/19 07:18:15;;;;;;;17.23;11.50;;;;;;;10.96;86.57;99722.23;1635264;85;25423;-60
2021/05/19 07:20:42;;;;;;;19.07;11.65;;;;;;;11.00;86.64;99722.61;1643884;85;28840;-60
2021/05/19 07:23:09;;;;;;;19.20;12.37;;;;;;;11.07;87.06;99718.05;1662066;84;26507;-60
2021/05/19 07:25:35;;;;;;;18.37;11.40;;;;;;;11.14;87.39;99715.62;1622562;86;25906;-60
2021/05/19 07:28:01;;;;;;;19.37;13.50;;;;;;;11.21;87.10;99717.24;1652096;85;25923;-60
2021/05/19 07:30:28;;;;;;;21.37;13.60;;;;;;;11.25;86.90;99712.53;1660020;84;25967;-60
2021/05/19 07:32:55;;;;;;;20.10;13.25;;;;;;;11.30;87.26;99718.55;1674556;84;27440;-60
2021/05/19 07:35:22;;;;;;;21.30;14.00;;;;;;;11.38;86.98;99718.27;1672335;84;27178;-60
2021/05/19 07:37:49;;;;;;;18.80;14.05;;;;;;;11.43;87.10;99717.30;1646827;85;25921;-60
2021/05/19 07:40:16;;;;;;;22.73;14.68;;;;;;;11.50;87.20;99714.86;1678275;83;25986;-60
2021/05/19 07:42:43;;;;;;;19.30;13.60;;;;;;;11.55;87.01;99717.38;1671778;83;25870;-60
2021/05/19 07:45:11;;;;;;;19.05;13.08;;;;;;;11.57;86.67;99715.12;1681615;83;27472;-60
2021/05/19 07:47:37;;;;;;;18.92;13.60;;;;;;;11.61;86.82;99710.61;1659584;84;26245;-59
2021/05/19 07:50:06;;;;;;;20.00;14.18;;;;;;;11.66;86.98;99711.77;1684744;82;26586;-60
2021/05/19 07:52:34;;;;;;;18.67;12.98;;;;;;;11.68;86.58;99710.91;1675019;83;25685;-60
2021/05/19 07:55:03;;;;;;;20.48;14.28;;;;;;;11.76;87.07;99718.18;1673448;83;25674;-60
2021/05/19 07:57:42;;;;;;;30.12;15.90;;;;;;;11.82;87.00;99719.34;1681584;83;27326;-60
2021/05/19 08:00:26;;;;;;;26.27;14.53;;;;;;;11.92;87.49;99723.03;1678413;83;25821;-60
2021/05/19 08:02:25;;;;;;;18.62;14.25;;;;;;;11.98;87.37;99717.62;1663924;83;26618;-59
2021/05/19 08:04:51;;;;;;;19.77;14.63;;;;;;;12.02;87.17;99717.74;1669228;83;25837;-60
2021/05/19 08:07:17;;;;;;;25.88;14.93;;;;;;;12.12;87.57;99721.40;1676666;83;25862;-60
2021/05/19 08:09:44;;;;;;;20.77;14.33;;;;;;;12.20;87.55;99714.33;1662367;84;27218;-60
2021/05/19 08:12:11;;;;;;;19.52;13.93;;;;;;;12.25;87.17;99721.67;1683392;82;26189;-60
2021/05/19 08:14:38;;;;;;;21.30;13.98;;;;;;;12.33;87.26;99723.52;1672585;83;25869;-60
2021/05/19 08:17:05;;;;;;;18.85;13.70;;;;;;;12.37;86.84;99722.86;1685662;83;25812;-60
2021/05/19 08:19:34;;;;;;;20.85;13.78;;;;;;;12.45;87.08;99724.69;1679076;82;25740;-60
2021/05/19 08:22:00;;;;;;;19.27;13.05;;;;;;;12.50;86.48;99732.61;1671317;83;27352;-60
2021/05/19 08:24:26;;;;;;;22.67;14.15;;;;;;;12.50;86.12;99727.19;1677123;83;25861;-60
2021/05/19 08:26:54;;;;;;;18.80;13.38;;;;;;;12.59;86.76;99733.87;1668368;84;25895;-60
2021/05/19 08:29:20;;;;;;;15.88;12.55;;;;;;;12.67;87.05;99738.42;1660736;84;26158;-59
2021/05/19 08:31:47;;;;;;;19.48;14.23;;;;;;;12.72;86.62;99735.48;1690521;82;26436;-61
2021/05/19 08:34:14;;;;;;;17.25;14.00;;;;;;;12.79;87.06;99739.79;1679835;83;27256;-60
2021/05/19 08:36:41;;;;;;;20.35;14.00;;;;;;;12.85;86.51;99729.50;1688738;83;25762;-60
2021/05/19 08:39:08;;;;;;;21.42;13.98;;;;;;;12.84;85.89;99735.50;1687514;83;25956;-60
2021/05/19 08:41:35;;;;;;;19.77;15.05;;;;;;;12.91;86.28;99736.88;1690987;83;25715;-60
2021/05/19 08:44:01;;;;;;;23.45;16.57;;;;;;;12.98;86.67;99737.88;1693725;83;25995;-61
2021/05/19 08:46:29;;;;;;;20.92;14.63;;;;;;;13.09;86.96;99739.58;1667969;83;27848;-61
2021/05/19 08:49:05;;;;;;;21.20;16.23;;;;;;;13.14;86.54;99741.28;1670408;82;26136;-61
2021/05/19 08:51:31;;;;;;;23.77;16.20;;;;;;;13.18;86.31;99745.70;1670875;84;25842;-61
2021/05/19 08:53:58;;;;;;;22.22;14.98;;;;;;;13.21;85.99;99740.14;1685443;83;26525;-61
2021/05/19 08:56:25;;;;;;;23.47;14.18;;;;;;;13.18;85.06;99743.56;1700241;83;25751;-61
2021/05/19 08:58:51;;;;;;;15.85;13.05;;;;;;;13.20;85.37;99742.65;1682894;83;27994;-62
2021/05/19 09:01:23;;;;;;;19.12;14.18;;;;;;;13.20;85.05;99750.22;1640414;85;25861;-61
2021/05/19 09:04:09;;;;;;;19.77;14.47;;;;;;;13.19;84.69;99745.12;1663083;84;25937;-61
2021/05/19 09:06:36;;;;;;;19.48;15.35;;;;;;;13.26;85.58;99746.70;1678741;84;25880;-61
2021/05/19 09:09:22;;;;;;;20.35;15.35;;;;;;;13.40;86.21;99745.02;1681608;83;25901;-63
2021/05/19 09:11:58;;;;;;;19.62;15.28;;;;;;;13.54;86.26;99746.83;1693544;83;27962;-62
2021/05/19 09:14:27;;;;;;;23.00;16.40;;;;;;;13.80;87.49;99747.01;1680951;83;26204;-61
2021/05/19 09:17:15;;;;;;;17.27;15.08;;;;;;;13.94;87.55;99749.34;1693388;83;32930;-61
2021/05/19 09:19:42;;;;;;;17.85;14.10;;;;;;;14.08;86.91;99748.95;1678933;83;25853;-62
2021/05/19 09:22:16;;;;;;;17.80;12.80;;;;;;;14.14;85.86;99749.72;1660697;83;25837;-62
2021/05/19 09:24:43;;;;;;;17.02;13.03;;;;;;;14.22;85.28;99752.64;1682763;83;27436;-62
2021/05/19 09:27:10;;;;;;;21.00;12.95;;;;;;;14.30;84.77;99754.42;1689733;83;25777;-62
2021/05/19 09:29:42;;;;;;;15.23;11.10;;;;;;;14.36;84.90;99747.02;1691711;82;25725;-62
2021/05/19 09:32:13;;;;;;;18.87;11.97;;;;;;;14.42;84.14;99755.75;1682857;83;25897;-61
2021/05/19 09:34:44;;;;;;;17.55;11.65;;;;;;;14.53;84.90;99751.36;1688546;83;25721;-61
2021/05/19 09:37:27;;;;;;;15.43;10.85;;;;;;;14.71;84.41;99746.97;1694903;82;27546;-62
2021/05/19 09:40:03;;;;;;;15.00;11.48;;;;;;;14.92;85.30;99748.88;1695117;83;26663;-61
2021/05/19 09:42:46;;;;;;;11.93;10.00;;;;;;;15.17;85.95;99751.98;1672381;83;25752;-61
2021/05/19 09:45:26;;;;;;;13.08;10.03;;;;;;;15.33;84.76;99747.91;1686670;83;25863;-61
2021/05/19 09:47:55;;;;;;;14.93;11.08;;;;;;;15.41;84.20;99745.53;1686108;83;25867;-61
2021/05/19 09:50:26;;;;;;;12.35;9.48;;;;;;;15.50;84.05;99748.29;1689939;83;27425;-62
2021/05/19 09:53:14;;;;;;;13.20;9.73;;;;;;;15.59;82.82;99748.67;1675232;83;25916;-62
2021/05/19 09:55:46;;;;;;;14.58;9.58;;;;;;;15.60;82.27;99744.23;1681573;83;26125;-62
2021/05/19 09:58:40;;;;;;;16.25;11.45;;;;;;;15.56;80.96;99738.47;1681579;83;25709;-62
2021/05/19 10:01:08;;;;;;;14.20;10.75;;;;;;;15.43;80.98;99751.44;1684004;83;25844;-62
2021/05/19 10:03:37;;;;;;;15.45;11.30;;;;;;;15.30;80.57;99743.94;1697449;83;27570;-62
2021/05/19 10:06:25;;;;;;;16.05;12.18;;;;;;;15.23;80.73;99748.64;1681374;83;31288;-62
2021/05/19 10:08:51;;;;;;;15.83;12.80;;;;;;;15.22;81.34;99747.63;1679565;83;25886;-62
2021/05/19 10:11:18;;;;;;;18.27;12.03;;;;;;;15.25;80.94;99752.38;1684696;83;26496;-63
2021/05/19 10:13:45;;;;;;;15.15;12.68;;;;;;;15.24;81.31;99750.81;1685631;83;25723;-63
2021/05/19 10:16:16;;;;;;;11.78;9.75;;;;;;;15.34;82.92;99753.00;1687742;83;27890;-63
2021/05/19 10:18:54;;;;;;;12.73;9.43;;;;;;;15.42;80.91;99749.84;1690762;83;25924;-63
2021/05/19 10:21:22;;;;;;;15.43;10.08;;;;;;;15.43;80.89;99748.72;1664519;84;25956;-62
2021/05/19 10:24:03;;;;;;;14.60;11.73;;;;;;;15.50;81.34;99749.66;1664450;84;25825;-63
2021/05/19 10:26:27;;;;;;;12.55;9.45;;;;;;;15.65;82.34;99749.98;1681426;84;26581;-64
2021/05/19 10:28:53;;;;;;;12.18;8.73;;;;;;;15.72;80.50;99746.62;1685480;83;27326;-64
2021/05/19 10:31:32;;;;;;;10.95;8.23;;;;;;;15.71;79.47;99745.03;1680629;83;25684;-65
2021/05/19 10:34:00;;;;;;;13.10;9.10;;;;;;;15.70;79.01;99742.89;1683396;82;25760;-65
2021/05/19 10:36:35;;;;;;;15.43;9.30;;;;;;;15.78;80.86;99746.57;1683292;83;26246;-63
2021/05/19 10:39:16;;;;;;;11.68;8.80;;;;;;;15.83;79.94;99749.83;1657229;84;25865;-65
2021/05/19 10:41:48;;;;;;;11.57;9.18;;;;;;;15.78;79.98;99752.84;1656922;84;27453;-64
2021/05/19 10:44:24;;;;;;;20.15;12.65;;;;;;;15.68;79.05;99748.70;1664517;85;25767;-64
2021/05/19 10:47:07;;;;;;;14.13;11.18;;;;;;;15.59;77.69;99752.18;1642110;85;25791;-65
2021/05/19 10:52:46;;;;;;;16.25;10.00;;;;;;;15.29;76.46;99746.45;1681286;83;25753;-66
2021/05/19 10:58:04;;;;;;;12.15;9.23;;;;;;;15.07;78.15;99762.28;1687693;83;25801;-64
2021/05/19 11:00:32;;;;;;;13.80;9.15;;;;;;;15.10;78.56;99764.86;1656014;84;25982;-65
2021/05/19 11:03:05;;;;;;;12.70;8.50;;;;;;;15.27;80.27;99756.34;1689795;83;25818;-65
2021/05/19 11:05:41;;;;;;;9.50;7.72;;;;;;;15.42;79.23;99759.39;1683845;83;25863;-65
2021/05/19 11:08:14;;;;;;;9.10;7.08;;;;;;;15.47;78.66;99766.71;1684154;83;27328;-66
2021/05/19 11:10:51;;;;;;;8.33;7.03;;;;;;;15.41;77.90;99758.61;1688868;83;25880;-66
2021/05/19 11:13:20;;;;;;;12.45;7.80;;;;;;;15.35;76.94;99760.59;1688717;83;25899;-65
2021/05/19 11:21:05;;;;;;;10.45;6.70;;;;;;;15.69;78.60;99757.08;1681368;83;27297;-65
2021/05/19 11:23:34;;;;;;;7.00;6.30;;;;;;;16.03;77.63;99756.64;1683106;83;25992;-66
2021/05/19 11:26:16;;;;;;;7.93;5.77;;;;;;;16.20;76.51;99759.52;1683189;83;26183;-65
2021/05/19 11:28:44;;;;;;;9.05;5.28;;;;;;;16.41;77.10;99755.03;1691599;83;27943;-63
2021/05/19 11:31:16;;;;;;;7.97;4.70;;;;;;;16.63;75.68;99753.48;1641412;85;25703;-64
2021/05/19 11:33:59;;;;;;;7.75;5.08;;;;;;;16.75;74.49;99754.70;1678303;83;27417;-67
2021/05/19 11:36:44;;;;;;;9.33;5.50;;;;;;;16.86;73.95;99757.63;1668159;83;26370;-65
2021/05/19 11:39:34;;;;;;;9.30;5.55;;;;;;;17.16;74.60;99766.50;1681726;83;26636;-65
2021/05/19 11:42:15;;;;;;;9.40;5.03;;;;;;;17.37;73.43;99748.30;1683109;83;25811;-65
2021/05/19 11:44:55;;;;;;;8.73;4.47;;;;;;;17.48;71.04;99749.80;1687253;82;25790;-66
2021/05/19 11:47:36;;;;;;;7.65;4.30;;;;;;;17.60;72.08;99741.97;1679507;83;27655;-66
2021/05/19 11:50:25;;;;;;;8.80;3.70;;;;;;;17.74;72.03;99748.98;1679605;83;25749;-63
2021/05/19 11:53:00;;;;;;;4.30;3.50;;;;;;;17.84;69.87;99739.34;1689888;83;25860;-64
2021/05/19 11:55:41;;;;;;;7.60;5.78;;;;;;;18.02;70.26;99742.34;1680863;83;25774;-64
2021/05/19 11:58:27;;;;;;;13.13;6.45;;;;;;;18.12;68.83;99752.62;1656163;83;25844;-64
2021/05/19 12:01:05;;;;;;;8.00;7.22;;;;;;;18.11;68.17;99746.94;1683163;83;28186;-64
2021/05/19 12:03:35;;;;;;;4.47;3.70;;;;;;;18.15;67.48;99750.52;1688093;83;25874;-63
2021/05/19 12:06:08;;;;;;;6.70;3.62;;;;;;;18.34;68.38;99746.81;1689575;83;25654;-64
2021/05/19 12:08:39;;;;;;;8.25;6.12;;;;;;;18.48;67.01;99746.95;1675352;83;25731;-64
2021/05/19 12:11:15;;;;;;;6.92;4.60;;;;;;;18.45;66.03;99743.59;1686410;83;25761;-64
2021/05/19 12:13:46;;;;;;;5.47;4.10;;;;;;;18.47;65.82;99745.95;1688688;83;27394;-64
2021/05/19 12:16:32;;;;;;;6.42;4.28;;;;;;;18.41;64.46;99754.32;1679264;83;25534;-64
2021/05/19 12:19:09;;;;;;;9.05;5.22;;;;;;;18.29;64.45;99747.93;1689296;83;25738;-62
2021/05/19 12:21:44;;;;;;;4.72;3.75;;;;;;;18.32;65.97;99749.15;1692493;82;25630;-65
2021/05/19 12:24:14;;;;;;;8.23;3.75;;;;;;;18.44;65.08;99739.89;1686204;83;25760;-64
2021/05/19 12:26:41;;;;;;;12.25;4.05;;;;;;;18.54;64.51;99746.61;1683379;83;27356;-62
2021/05/19 12:29:32;;;;;;;6.87;4.45;;;;;;;18.64;64.55;99749.48;1669629;84;25833;-64
2021/05/19 12:32:27;;;;;;;9.58;3.90;;;;;;;18.77;63.56;99747.23;1664692;84;25883;-64
2021/05/19 12:35:15;;;;;;;6.03;4.00;;;;;;;18.90;63.04;99744.23;1650945;84;25711;-64
2021/05/19 12:37:52;;;;;;;3.77;3.30;;;;;;;19.01;62.64;99744.52;1658924;84;26806;-64
2021/05/19 12:40:23;;;;;;;5.83;4.00;;;;;;;19.15;61.73;99743.06;1666571;84;27352;-64
2021/05/19 12:42:55;;;;;;;5.10;4.10;;;;;;;19.45;62.04;99746.22;1677094;83;25773;-64
2021/05/19 12:45:41;;;;;;;7.87;5.28;;;;;;;19.66;60.13;99735.34;1691802;83;25875;-62
2021/05/19 12:51:02;;;;;;;4.35;2.87;;;;;;;20.23;59.39;99742.30;1670506;83;25796;-64
2021/05/19 12:53:41;;;;;;;5.97;3.10;;;;;;;20.51;58.67;99738.22;1685263;83;29464;-63
2021/05/19 12:56:20;;;;;;;6.53;3.40;;;;;;;20.75;57.12;99748.30;1689509;83;25867;-63
2021/05/19 12:58:59;;;;;;;4.67;3.08;;;;;;;21.01;57.42;99744.39;1683635;83;25741;-63
2021/05/19 13:01:29;;;;;;;4.95;2.72;;;;;;;21.45;57.43;99749.23;1686928;83;25803;-63
2021/05/19 13:03:58;;;;;;;4.70;3.62;;;;;;;21.79;54.89;99742.71;1687190;83;25904;-65
2021/05/19 13:06:26;;;;;;;;;;;;;;;21.68;54.05;99747.45;1686477;83;27239;-61
2021/05/19 13:09:02;;;;;;;4.53;2.35;;;;;;;21.66;53.47;99742.94;1684897;82;25636;-63
2021/05/19 13:11:31;;;;;;;4.75;2.65;;;;;;;21.75;52.79;99750.17;1684705;82;26855;-62
2021/05/19 13:13:58;;;;;;;2.47;2.10;;;;;;;21.79;51.65;99743.28;1682677;82;26470;-62
2021/05/19 13:16:34;;;;;;;3.50;2.80;;;;;;;21.70;50.95;99742.93;1688197;82;26288;-63
2021/05/19 13:19:03;;;;;;;7.37;3.20;;;;;;;21.48;50.63;99742.20;1691563;83;28107;-63
2021/05/19 13:21:49;;;;;;;4.05;2.33;;;;;;;21.14;50.16;99746.73;1638388;83;25958;-63
2021/05/19 13:24:18;;;;;;;6.58;2.50;;;;;;;20.84;50.24;99747.91;1690030;83;26359;-63
2021/05/19 13:26:56;;;;;;;2.85;2.30;;;;;;;20.62;50.94;99742.41;1682099;83;25643;-63
2021/05/19 13:29:23;;;;;;;3.33;2.40;;;;;;;20.86;51.99;99744.97;1689086;83;25835;-63
2021/05/19 13:37:09;;;;;;;2.35;1.80;;;;;;;21.75;49.48;99738.39;1681835;83;25899;-62
2021/05/19 13:39:35;;;;;;;2.90;1.62;;;;;;;21.93;48.74;99732.80;1682306;83;25720;-62
2021/05/19 13:42:04;;;;;;;2.72;1.70;;;;;;;22.08;48.39;99727.42;1684520;83;25937;-62
2021/05/19 13:44:32;;;;;;;5.00;1.65;;;;;;;22.20;48.52;99730.31;1698522;82;27441;-62
2021/05/19 13:47:01;;;;;;;2.10;1.60;;;;;;;22.39;46.36;99729.08;1684056;83;25685;-62
2021/05/19 13:49:32;;;;;;;2.15;1.60;;;;;;;22.45;46.96;99723.91;1684039;83;25875;-61
2021/05/19 13:52:05;;;;;;;2.00;1.90;;;;;;;22.53;45.95;99728.97;1690564;82;25815;-62
2021/05/19 13:54:40;;;;;;;2.55;1.47;;;;;;;22.50;46.34;99726.25;1683535;83;25946;-61
2021/05/19 13:57:06;;;;;;;2.67;1.72;;;;;;;22.68;46.56;99728.28;1689943;83;27731;-61
2021/05/19 13:59:33;;;;;;;3.45;1.57;;;;;;;22.96;46.65;99733.38;1685451;83;25778;-61
2021/05/19 14:02:00;;;;;;;4.00;1.77;;;;;;;23.13;45.95;99725.56;1687252;83;25816;-63
2021/05/19 14:04:27;;;;;;;2.37;1.22;;;;;;;23.21;44.63;99726.89;1679647;83;25888;-62
2021/05/19 14:06:55;;;;;;;2.80;1.72;;;;;;;23.12;42.74;99732.86;1685196;83;25715;-61
2021/05/19 14:09:23;;;;;;;3.62;1.98;;;;;;;23.01;44.29;99728.03;1688122;83;27902;-60
2021/05/19 14:17:09;;;;;;;1.62;1.10;;;;;;;22.65;44.15;99724.18;1661505;83;25963;-64
2021/05/19 14:27:41;;;;;;;2.35;1.37;;;;;;;21.64;43.58;99736.46;1675820;82;25730;-63
2021/05/19 14:30:14;;;;;;;2.42;1.87;;;;;;;21.43;44.47;99740.60;1684189;83;25785;-62
2021/05/19 14:32:41;;;;;;;2.40;2.00;;;;;;;21.26;45.14;99744.95;1663068;82;25855;-63
2021/05/19 14:35:34;;;;;;;4.08;1.70;;;;;;;21.07;45.73;99744.17;1681918;83;27334;-63
2021/05/19 14:59:16;;;;;;;4.30;1.87;;;;;;;19.38;46.87;99749.70;1686322;83;25931;-62
2021/05/19 15:01:32;;;;;;;4.67;1.45;;;;;;;19.18;47.15;99748.57;1688276;83;27397;-62
2021/05/19 15:04:01;;;;;;;2.35;1.90;;;;;;;19.01;47.25;99750.00;1688903;83;26536;-63
2021/05/19 15:06:28;;;;;;;;;;;;;;;18.88;47.88;99743.83;1644447;82;25770;-65
2021/05/19 15:08:56;;;;;;;3.40;1.75;;;;;;;18.80;47.60;99741.59;1693113;83;25816;-68
2021/05/19 15:11:22;;;;;;;2.33;1.45;;;;;;;18.73;48.02;99742.31;1680180;82;26494;-65
2021/05/19 15:13:49;;;;;;;2.08;1.50;;;;;;;18.70;48.63;99747.17;1693574;82;27421;-64
2021/05/19 15:16:17;;;;;;;2.45;1.62;;;;;;;18.66;47.69;99749.07;1684386;83;25715;-64
2021/05/19 15:18:43;;;;;;;2.10;1.40;;;;;;;18.55;47.52;99749.57;1684250;83;25885;-65
2021/05/19 15:21:10;;;;;;;1.60;1.50;;;;;;;18.50;48.01;99755.39;1679963;83;25844;-65
2021/05/19 15:23:37;;;;;;;3.33;1.57;;;;;;;18.45;48.08;99755.13;1672535;83;25738;-66
2021/05/19 15:26:04;;;;;;;4.95;1.70;;;;;;;18.39;48.19;99751.95;1677173;83;27460;-63
2021/05/19 15:28:30;;;;;;;2.83;1.95;;;;;;;18.34;48.64;99748.19;1684437;83;25945;-63
2021/05/19 15:30:58;;;;;;;5.10;4.75;;;;;;;18.33;48.75;99747.19;1688161;83;25782;-63
2021/05/19 15:33:25;;;;;;;2.55;2.30;;;;;;;18.32;48.97;99753.81;1697582;82;26296;-62
2021/05/19 15:35:52;;;;;;;4.87;3.25;;;;;;;18.29;49.25;99749.30;1694522;83;26645;-62
2021/05/19 15:38:19;;;;;;;3.70;1.60;;;;;;;18.29;49.44;99749.89;1692670;83;27374;-62
2021/05/19 15:40:46;;;;;;;4.17;1.80;;;;;;;18.25;49.49;99747.67;1684877;83;25898;-62
2021/05/19 15:43:13;;;;;;;4.65;4.15;;;;;;;18.16;49.30;99743.09;1696622;83;25411;-64
2021/05/19 15:45:41;;;;;;;2.72;2.45;;;;;;;18.09;49.62;99756.11;1680034;83;26341;-64
2021/05/19 15:48:09;;;;;;;10.18;2.95;;;;;;;18.06;49.93;99759.58;1681842;83;25829;-64
2021/05/19 15:50:39;;;;;;;3.02;2.62;;;;;;;17.98;49.95;99762.83;1683380;83;27954;-65
2021/05/19 15:53:07;;;;;;;3.25;2.70;;;;;;;17.82;50.17;99780.75;1683902;83;25832;-65
2021/05/19 15:55:34;;;;;;;6.35;3.42;;;;;;;17.60;50.84;99779.66;1688349;83;25854;-65
2021/05/19 15:58:01;;;;;;;5.35;3.70;;;;;;;17.35;51.87;99791.02;1681814;83;26211;-65
2021/05/19 16:00:28;;;;;;;7.67;4.00;;;;;;;17.11;53.17;99796.31;1685795;82;25673;-65
2021/05/19 16:02:54;;;;;;;5.00;3.87;;;;;;;16.91;54.08;99802.41;1683228;83;28055;-64
2021/05/19 16:05:21;;;;;;;4.58;4.00;;;;;;;16.71;54.82;99800.84;1675630;83;25952;-61
2021/05/19 16:07:48;;;;;;;4.25;3.85;;;;;;;16.48;55.55;99813.06;1684424;82;25769;-62
2021/05/19 16:10:15;;;;;;;7.10;3.90;;;;;;;16.23;56.23;99817.47;1681707;83;26346;-63
2021/05/19 16:12:43;;;;;;;5.08;3.37;;;;;;;16.03;56.87;99820.16;1679754;83;25702;-62
2021/05/19 16:15:11;;;;;;;3.25;2.00;;;;;;;15.80;57.80;99826.89;1684086;83;27303;-63
2021/05/19 16:17:38;;;;;;;2.50;1.80;;;;;;;15.49;57.73;99826.31;1684575;82;25864;-62
2021/05/19 16:20:07;;;;;;;1.75;1.15;;;;;;;15.18;57.83;99837.45;1662018;84;25807;-64
2021/05/19 16:22:34;;;;;;;2.02;1.32;;;;;;;14.82;58.58;99843.91;1698599;83;25956;-64
2021/05/19 16:25:00;;;;;;;3.52;1.80;;;;;;;14.49;59.39;99858.52;1689346;83;25740;-64
2021/05/19 16:27:27;;;;;;;2.83;2.10;;;;;;;14.19;60.25;99858.85;1688273;83;27481;-64
2021/05/19 16:36:38;;;;;;;4.78;2.10;;;;;;;13.60;62.75;99862.87;1561475;89;25880;-62
2021/05/19 16:39:09;;;;;;;2.25;2.02;;;;;;;13.45;63.61;99875.22;1561205;89;25932;-64
2021/05/19 16:41:36;;;;;;;2.22;1.98;;;;;;;13.33;63.72;99868.39;1556683;90;28160;-64
2021/05/19 16:44:04;;;;;;;3.70;1.80;;;;;;;13.25;64.38;99861.92;1559035;89;25814;-64
2021/05/19 16:46:32;;;;;;;2.62;1.98;;;;;;;13.19;64.45;99864.03;1543857;91;26052;-64
2021/05/19 16:49:10;;;;;;;3.37;1.90;;;;;;;13.15;65.03;99860.42;1544091;91;26281;-64
2021/05/19 16:51:48;;;;;;;3.47;1.70;;;;;;;13.11;65.34;99852.73;1545009;91;25862;-63
2021/05/19 16:54:19;;;;;;;2.05;1.85;;;;;;;13.08;65.50;99854.75;1553494;89;27303;-64
2021/05/19 16:56:46;;;;;;;18.65;9.75;;;;;;;13.00;66.46;99853.70;1559339;89;25966;-63
2021/05/19 16:59:14;;;;;;;9.55;5.55;;;;;;;12.96;66.78;99854.73;1549986;89;26920;-64
2021/05/19 17:06:54;;;;;;;15.08;13.18;;;;;;;12.87;66.90;99867.02;1576767;89;27249;-63
2021/05/19 17:09:22;;;;;;;9.20;8.23;;;;;;;12.84;67.55;99864.99;1612349;87;25982;-64
2021/05/19 17:11:55;;;;;;;3.80;3.50;;;;;;;12.81;67.46;99867.80;1687169;83;25782;-62
2021/05/19 17:14:21;;;;;;;3.10;2.80;;;;;;;12.78;67.64;99867.67;1679480;83;25969;-64
2021/05/19 17:16:48;;;;;;;2.83;2.05;;;;;;;12.75;68.03;99866.41;1693911;83;25769;-64
2021/05/19 17:19:17;;;;;;;3.77;2.25;;;;;;;12.74;68.21;99862.69;1693246;82;27325;-64
2021/05/19 17:21:45;;;;;;;3.05;2.35;;;;;;;12.70;68.57;99867.97;1673412;83;25856;-64
2021/05/19 17:24:15;;;;;;;5.58;2.47;;;;;;;12.67;68.84;99869.44;1686014;83;26006;-64
2021/05/19 17:26:42;;;;;;;2.90;2.62;;;;;;;12.65;68.91;99875.77;1664589;83;25803;-64
2021/05/19 17:29:08;;;;;;;2.77;2.20;;;;;;;12.61;69.29;99875.41;1688698;83;25893;-62
2021/05/19 17:31:34;;;;;;;2.90;2.40;;;;;;;12.58;69.59;99877.42;1685030;83;27486;-62
2021/05/19 17:34:02;;;;;;;3.08;2.55;;;;;;;12.56;69.80;99881.81;1682287;83;25876;-62
2021/05/19 17:36:30;;;;;;;2.62;2.30;;;;;;;12.52;69.86;99879.55;1667643;84;25819;-62
2021/05/19 17:38:58;;;;;;;4.95;2.75;;;;;;;12.48;69.91;99876.71;1659776;85;25924;-62
2021/05/19 17:41:27;;;;;;;4.33;3.20;;;;;;;12.46;70.03;99872.73;1669675;84;25926;-63
2021/05/19 17:43:56;;;;;;;4.60;2.62;;;;;;;12.44;70.51;99875.77;1662862;84;27330;-63
2021/05/19 17:46:25;;;;;;;4.28;2.90;;;;;;;12.42;70.64;99871.24;1663685;85;25901;-63
2021/05/19 17:49:07;;;;;;;28.02;26.35;;;;;;;12.40;70.80;99874.07;1659335;85;35027;-63
2021/05/19 17:51:24;;;;;;;29.87;27.75;;;;;;;12.38;71.06;99874.40;1657047;84;25925;-63
2021/05/19 17:53:50;;;;;;;3.77;3.20;;;;;;;12.37;71.16;99872.02;1694422;82;26503;-63
2021/05/19 17:56:17;;;;;;;6.08;3.52;;;;;;;12.37;71.17;99872.80;1688301;83;27874;-63
2021/05/19 17:58:48;;;;;;;4.85;3.50;;;;;;;12.39;71.09;99876.54;1682091;83;25738;-63
2021/05/19 18:01:16;;;;;;;5.42;3.80;;;;;;;12.37;71.31;99878.80;1684928;83;26123;-63
2021/05/19 18:03:42;;;;;;;4.53;3.50;;;;;;;12.35;71.50;99877.77;1687905;83;25782;-64
2021/05/19 18:06:09;;;;;;;6.50;3.60;;;;;;;12.33;71.65;99879.45;1677237;83;25773;-63
2021/05/19 18:08:36;;;;;;;4.45;3.67;;;;;;;12.31;71.87;99884.98;1685659;83;27422;-64
2021/05/19 18:11:03;;;;;;;4.45;3.75;;;;;;;12.26;71.83;99877.84;1691510;82;25889;-64
2021/05/19 18:13:29;;;;;;;6.35;4.80;;;;;;;12.26;72.09;99877.84;1688721;82;25856;-64
2021/05/19 18:15:55;;;;;;;7.72;5.00;;;;;;;12.25;72.16;99875.45;1688483;83;25721;-63